Weather at Tikehau Airport

Public forecast

Using degrees Celsius for public forecast. Weather courtesy of forecast.io.

Closest aviation weather report (METAR) to Tikehau Airport

Closest report is Faa'a International Airport, 166.3 nm (307.9 km) SSW. Retrieved 2021/08/02 18:00 UTC (12 minutes ago):

NTAA 021800Z 07008KT 9999 FEW026 26/18 Q1016 NOSIG

Closest aviation forecast (TAF) to Tikehau Airport

Closest forecast is Faa'a International Airport, 166.3 nm (307.9 km) SSW. Retrieved 2021/08/02 18:06 UTC (6 minutes ago):

TAF NTAA 021700Z 0218/0324 07010KT 9999 FEW025 BECMG 0303/0306 VRB05KT PROB30 TEMPO 0315/0319 3000 SHRA FEW018TCU BKN040